Clarendon Hills, Illinois
Current Conditions -  °F | °C
As of 11:53 PM on Sunday 25 Jan 2015 (Local Time) from KMDW Reporting Station
Broken Clouds Broken Clouds  
Wind Chill: 14°   Ceiling: 2400
Heat Index: 26°   Visibility: 10mi
Dew Point: 17°   Wind: 14mph
Humidity: 69%   Direction: 70°ENE
Pressure: 29.97"   Gusts: NA
Location:  41.8°N, 87.95°W
Report Text: KMDW 260553Z 07012KT 10SM BKN024 M03/M08 A2997 RMK AO2 SLP162 60000 T10331083 11017 21033 400331033 50000
Loading
Personal Weather Stations






























Interactive Weather Map New forecast layout! Learn more

10-Day Weather Forecast

Advertisements
Track Severe Weather on mobile